Hauptseite
METAR-TAF:

METAR-TAF

Flughäfen :

Heeresflugplatz Fritzlar

Fritzlar, Deutschland

Breite: 51-07N, Länge: 009-17E, Höhe: 172 m

Beobachtung

Neuester Wetterbericht von vor 46 Minuten, um 05:20 UTC
Wind 1 kt aus unterschiedlichen Richtungen
Temperatur 10°C
Luftfeuchtigkeit 87%
Luftdruck 1021 hPa
Sichtweite 10 km oder mehr
Leicht bewölkt in der Höhe von 2300 ft
Aufgelockert bewölkt in der Höhe von 5000 ft

METAR: ETHF 070520Z VRB01KT 9999 FEW023 SCT050 10/08 Q1021 BLU+BLU

Zeit: 08:06 (06:06 UTC)

Prognose

Neuester Wetterbericht von vor 1 Stunde und 51 Minuten, um 04:15 UTC
Gültige Prognose vom 07 um 05 UTC bis 07 um 14 UTC
Wind 10 kt aus West/Südwest
Sichtweite 10 km oder mehr
Aufgelockert bewölkt in der Höhe von 3500 ft
Durchbrochene Bewölkung in der Höhe von 5000 ft

TAF: ETHF 070415Z 0705/0714 24010KT 9999 NSW SCT035 BKN050

Wetterbeobachtungen und Prognosen von mehr als 4000 Flughäfen (METAR und TAF Bericht).

Die verfügbaren Stationen werden durch gelbe und rote Markierungen auf der Karte dargestellt.

Führen Sie die Maus auf sie, um den Namen der Station zu sehen.

Darauf klicken, um die Beobachtung von Wetterbeobachtungen und Prognosen zu sehen.

Um die Karte zu ändern : klicken Sie auf den grünen Tasten mit einem schwarzen Kreuz Zum Vergrößern, auf den grünen Button mit einem Gedankenstrich zu verkleinern, oder auf die grünen Pfeile für benachbarte Karten.


METAR-TAF: